Time;durP1;ratioP1;P1;durP2;ratioP2;P2;SDS_P1;SDS_P2;PMS_P1;PMS_P2;Temp;Humidity;BMP_temperature;BMP_pressure;BME280_temperature;BME280_humidity;BME280_pressure;Samples;Min_cycle;Max_cycle;Signal;HPM_P1;HPM_P2
2023/06/28 00:02:54;;;;;;;3.47;3.00;;;24.20;73.40;;;;;;6197292;28;89447;-71
2023/06/28 00:05:55;;;;;;;4.28;3.10;;;24.20;73.20;;;;;;6197197;28;87973;-71
2023/06/28 00:08:58;;;;;;;4.88;3.63;;;24.30;73.10;;;;;;6203755;28;89594;-71
2023/06/28 00:12:00;;;;;;;3.88;3.10;;;24.30;73.20;;;;;;6207378;28;89084;-70
2023/06/28 00:15:02;;;;;;;4.72;3.05;;;24.30;73.40;;;;;;6209652;28;89089;-70
2023/06/28 00:18:07;;;;;;;4.53;3.03;;;24.20;73.40;;;;;;6188482;28;88758;-71
2023/06/28 00:21:13;;;;;;;3.60;2.60;;;24.20;73.50;;;;;;6195665;28;88539;-71
2023/06/28 00:24:15;;;;;;;3.10;2.70;;;24.20;73.60;;;;;;6195396;28;89242;-71
2023/06/28 00:27:17;;;;;;;2.97;2.67;;;24.20;73.70;;;;;;6200396;28;89289;-72
2023/06/28 00:30:19;;;;;;;2.90;2.65;;;24.20;73.80;;;;;;6203429;28;90016;-71
2023/06/28 00:33:22;;;;;;;3.00;2.53;;;24.20;74.00;;;;;;6215531;28;89072;-71
2023/06/28 00:36:24;;;;;;;4.55;3.30;;;24.20;74.30;;;;;;6192028;28;89083;-71
2023/06/28 00:39:26;;;;;;;3.75;2.67;;;24.20;74.50;;;;;;6200448;28;88107;-70
2023/06/28 00:42:28;;;;;;;3.22;2.63;;;24.20;74.60;;;;;;6200375;28;89141;-71
2023/06/28 00:45:30;;;;;;;4.28;2.60;;;24.20;75.00;;;;;;6199316;28;89384;-71
2023/06/28 00:48:34;;;;;;;3.50;2.60;;;24.20;75.10;;;;;;6194065;28;89159;-71
2023/06/28 00:51:36;;;;;;;2.72;2.20;;;24.20;75.30;;;;;;6195425;28;88160;-71
2023/06/28 00:54:38;;;;;;;3.15;2.50;;;24.20;75.40;;;;;;6206954;28;89125;-71
2023/06/28 00:57:41;;;;;;;3.22;2.47;;;24.20;75.50;;;;;;6194976;28;88821;-70
2023/06/28 01:00:44;;;;;;;3.80;2.75;;;24.20;75.50;;;;;;6199034;28;90139;-71
2023/06/28 01:03:53;;;;;;;3.58;2.47;;;24.20;75.60;;;;;;6182001;28;89440;-71
2023/06/28 01:06:59;;;;;;;3.95;2.63;;;24.20;75.80;;;;;;6184946;28;87905;-71
2023/06/28 01:10:02;;;;;;;3.60;2.45;;;24.20;76.00;;;;;;6190279;28;89237;-71
2023/06/28 01:13:05;;;;;;;3.63;2.60;;;24.20;76.20;;;;;;6208274;28;87942;-71
2023/06/28 01:16:07;;;;;;;2.95;2.50;;;24.20;76.20;;;;;;6201819;28;89051;-71
2023/06/28 01:19:13;;;;;;;3.65;2.70;;;24.10;76.20;;;;;;6213829;28;89467;-71
2023/06/28 01:22:15;;;;;;;3.42;2.30;;;24.20;76.50;;;;;;6202333;28;88425;-72
2023/06/28 01:25:18;;;;;;;2.90;2.60;;;24.10;76.60;;;;;;6191756;28;89212;-71
2023/06/28 01:28:20;;;;;;;3.53;2.38;;;24.20;77.00;;;;;;6207170;28;89088;-71
2023/06/28 01:31:22;;;;;;;3.70;2.40;;;24.20;77.20;;;;;;6211280;28;90037;-71
2023/06/28 01:34:26;;;;;;;4.40;3.10;;;24.10;77.30;;;;;;6209893;28;89110;-72
2023/06/28 01:37:28;;;;;;;4.22;2.92;;;24.10;77.50;;;;;;6229262;28;89247;-71
2023/06/28 01:40:35;;;;;;;2.83;2.42;;;24.10;77.70;;;;;;6198682;28;89072;-72
2023/06/28 01:43:39;;;;;;;5.65;3.35;;;24.10;77.90;;;;;;6204942;28;89157;-72
2023/06/28 01:46:42;;;;;;;3.08;2.40;;;24.10;78.00;;;;;;6206906;28;89751;-72
2023/06/28 01:49:44;;;;;;;2.67;2.35;;;24.10;78.10;;;;;;6198676;28;89680;-72
2023/06/28 01:52:46;;;;;;;3.35;2.42;;;24.10;78.30;;;;;;6199940;28;88319;-71
2023/06/28 01:55:49;;;;;;;3.75;2.70;;;24.10;78.40;;;;;;6200221;28;89069;-71
2023/06/28 01:58:51;;;;;;;3.65;2.22;;;24.00;78.60;;;;;;6205833;28;89110;-72
2023/06/28 02:01:53;;;;;;;4.30;2.90;;;24.00;78.60;;;;;;6190051;28;90042;-71
2023/06/28 02:04:55;;;;;;;2.95;2.17;;;24.10;78.70;;;;;;6203991;28;89248;-71
2023/06/28 02:07:57;;;;;;;2.70;2.40;;;24.00;78.80;;;;;;6198158;28;88233;-71
2023/06/28 02:11:01;;;;;;;4.05;2.75;;;24.10;78.90;;;;;;6220909;28;89053;-72
2023/06/28 02:14:03;;;;;;;3.60;2.80;;;24.00;78.90;;;;;;6207414;28;89216;-72
2023/06/28 02:17:05;;;;;;;3.10;2.50;;;24.10;78.90;;;;;;6205026;28;89117;-71
2023/06/28 02:20:10;;;;;;;3.10;2.45;;;24.10;78.80;;;;;;6204648;28;87965;-72
2023/06/28 02:23:12;;;;;;;2.80;2.30;;;24.10;78.90;;;;;;6221623;28;87209;-71
2023/06/28 02:26:15;;;;;;;2.90;2.30;;;24.00;78.80;;;;;;6197968;28;89134;-72
2023/06/28 02:29:17;;;;;;;2.63;2.17;;;24.10;78.80;;;;;;6215007;28;89377;-72
2023/06/28 02:32:19;;;;;;;3.40;2.65;;;24.10;78.90;;;;;;6219459;28;89255;-72
2023/06/28 02:35:21;;;;;;;4.07;2.70;;;24.10;79.10;;;;;;6217641;28;89125;-72
2023/06/28 02:38:23;;;;;;;3.88;2.65;;;24.10;79.30;;;;;;6201440;28;87977;-72
2023/06/28 02:41:26;;;;;;;3.30;2.35;;;24.10;79.40;;;;;;6207514;28;89043;-72
2023/06/28 02:44:28;;;;;;;2.92;2.55;;;24.10;79.40;;;;;;6206341;28;89163;-72
2023/06/28 02:47:30;;;;;;;4.70;2.90;;;24.10;79.40;;;;;;6202675;28;89114;-72
2023/06/28 02:50:32;;;;;;;3.55;2.70;;;24.10;79.60;;;;;;6195559;28;88981;-72
2023/06/28 02:53:34;;;;;;;3.13;2.40;;;24.10;79.60;;;;;;6190071;28;88472;-71
2023/06/28 02:56:37;;;;;;;3.70;2.50;;;24.00;79.60;;;;;;6189260;28;89126;-72
2023/06/28 02:59:39;;;;;;;4.63;2.88;;;24.00;79.60;;;;;;6213895;28;89326;-71
2023/06/28 03:02:41;;;;;;;2.50;2.30;;;24.00;79.60;;;;;;6201162;28;89972;-72
2023/06/28 03:05:43;;;;;;;2.75;2.25;;;24.00;79.60;;;;;;6200114;28;89060;-71
2023/06/28 03:08:45;;;;;;;2.83;2.05;;;24.00;79.60;;;;;;6199661;28;89231;-71
2023/06/28 03:11:49;;;;;;;2.67;2.40;;;24.00;79.40;;;;;;6206275;28;89133;-72
2023/06/28 03:14:51;;;;;;;4.57;3.10;;;24.00;79.40;;;;;;6197787;28;89258;-71
2023/06/28 03:17:53;;;;;;;4.18;2.97;;;24.00;79.30;;;;;;6204890;28;89112;-71
2023/06/28 03:20:55;;;;;;;3.58;2.83;;;24.00;79.20;;;;;;6203609;28;88399;-72
2023/06/28 03:23:57;;;;;;;3.70;2.70;;;24.10;79.30;;;;;;6201099;28;88117;-72
2023/06/28 03:27:00;;;;;;;3.97;3.05;;;24.00;79.10;;;;;;6198815;28;89265;-72
2023/06/28 03:30:02;;;;;;;5.20;3.72;;;24.10;80.10;;;;;;6194251;28;88110;-71
2023/06/28 03:33:04;;;;;;;4.07;3.13;;;24.10;79.10;;;;;;6202379;28;88902;-72
2023/06/28 03:36:06;;;;;;;4.38;3.40;;;24.00;79.20;;;;;;6195823;28;89025;-71
2023/06/28 03:39:08;;;;;;;4.97;3.30;;;24.00;79.20;;;;;;6208721;28;89179;-71
2023/06/28 03:42:12;;;;;;;4.63;3.03;;;24.10;79.40;;;;;;6203705;28;89084;-71
2023/06/28 03:45:14;;;;;;;5.20;3.70;;;24.00;79.40;;;;;;6198690;28;89115;-71
2023/06/28 03:48:18;;;;;;;4.45;3.30;;;24.00;79.40;;;;;;6189350;28;89057;-71
2023/06/28 03:51:20;;;;;;;3.03;2.72;;;24.00;79.40;;;;;;6221129;28;89272;-71
2023/06/28 03:54:22;;;;;;;4.93;3.60;;;24.00;79.50;;;;;;6216365;28;88318;-71
2023/06/28 03:57:25;;;;;;;3.67;3.22;;;24.00;79.50;;;;;;6205783;28;89072;-71
2023/06/28 04:00:27;;;;;;;2.92;2.63;;;24.00;79.50;;;;;;6199642;28;90160;-71
2023/06/28 04:03:29;;;;;;;5.43;3.42;;;24.00;79.50;;;;;;6198775;28;90016;-72
2023/06/28 04:06:31;;;;;;;3.92;2.95;;;24.00;79.40;;;;;;6207783;28;90154;-71
2023/06/28 04:09:33;;;;;;;3.45;2.42;;;24.00;79.50;;;;;;6197169;28;89064;-72
2023/06/28 04:12:36;;;;;;;3.78;2.63;;;24.00;79.60;;;;;;6184863;28;89331;-71
2023/06/28 04:15:38;;;;;;;3.13;2.83;;;24.00;79.60;;;;;;6198804;28;89516;-71
2023/06/28 04:18:40;;;;;;;3.53;2.60;;;24.00;79.80;;;;;;6206723;28;89384;-71
2023/06/28 04:21:42;;;;;;;4.22;2.60;;;24.00;79.90;;;;;;6199125;28;89248;-72
2023/06/28 04:24:44;;;;;;;3.63;2.50;;;24.00;79.90;;;;;;6195052;28;87569;-71
2023/06/28 04:27:48;;;;;;;3.70;2.67;;;24.00;79.80;;;;;;6200486;28;89075;-72
2023/06/28 04:30:50;;;;;;;3.80;3.05;;;24.00;79.90;;;;;;6201980;28;89276;-71
2023/06/28 04:33:55;;;;;;;4.20;3.15;;;24.00;80.00;;;;;;6195627;28;91093;-71
2023/06/28 04:36:58;;;;;;;4.43;3.33;;;24.00;80.00;;;;;;6194505;28;89170;-71
2023/06/28 04:40:02;;;;;;;3.28;2.78;;;23.90;79.90;;;;;;6206650;28;89065;-71
2023/06/28 04:43:10;;;;;;;2.80;2.50;;;23.90;80.00;;;;;;6196501;28;88573;-71
2023/06/28 04:46:12;;;;;;;4.47;2.95;;;23.90;80.00;;;;;;6194565;28;89477;-71
2023/06/28 04:49:14;;;;;;;2.90;2.53;;;23.90;80.00;;;;;;6207048;28;88888;-71
2023/06/28 04:52:18;;;;;;;3.83;2.60;;;23.90;79.90;;;;;;6217154;28;89055;-72
2023/06/28 04:55:20;;;;;;;2.72;2.30;;;23.90;80.00;;;;;;6195342;28;88149;-71
2023/06/28 04:58:25;;;;;;;6.43;2.85;;;23.90;80.00;;;;;;6189881;28;89137;-72
2023/06/28 05:01:27;;;;;;;3.28;2.30;;;23.90;81.00;;;;;;6201175;28;88130;-70
2023/06/28 05:04:29;;;;;;;2.55;2.30;;;23.90;81.50;;;;;;6206025;28;89997;-72
2023/06/28 05:07:31;;;;;;;4.20;3.05;;;24.00;81.10;;;;;;6198245;28;88006;-71
2023/06/28 05:10:33;;;;;;;2.92;2.53;;;23.90;81.10;;;;;;6206697;28;87989;-71
2023/06/28 05:13:36;;;;;;;3.22;2.25;;;23.90;81.20;;;;;;6203268;28;87944;-71
2023/06/28 05:16:38;;;;;;;4.50;2.80;;;23.90;81.20;;;;;;6209975;28;89113;-71
2023/06/28 05:19:40;;;;;;;4.85;2.53;;;24.00;81.30;;;;;;6204908;28;89187;-72
2023/06/28 05:22:47;;;;;;;3.10;2.60;;;23.90;81.50;;;;;;6217267;28;89103;-72
2023/06/28 05:25:49;;;;;;;4.78;3.08;;;23.90;81.50;;;;;;6203380;28;88505;-72
2023/06/28 05:28:52;;;;;;;4.30;2.78;;;23.90;81.30;;;;;;6184905;28;89083;-71
2023/06/28 05:31:54;;;;;;;3.05;2.40;;;23.90;81.40;;;;;;6188525;28;89076;-71
2023/06/28 05:34:56;;;;;;;4.28;3.08;;;24.00;81.70;;;;;;6206917;28;90111;-72
2023/06/28 05:37:58;;;;;;;2.38;2.17;;;23.90;81.80;;;;;;6218297;28;89102;-71
2023/06/28 05:41:12;;;;;;;2.47;2.28;;;23.90;81.60;;;;;;6211799;28;89133;-71
2023/06/28 05:44:20;;;;;;;3.67;2.50;;;23.90;81.50;;;;;;6185888;28;89088;-72
2023/06/28 05:47:22;;;;;;;4.07;2.70;;;23.90;81.50;;;;;;6200366;28;89369;-71
2023/06/28 05:50:24;;;;;;;4.53;3.05;;;23.90;81.50;;;;;;6197979;28;88320;-71
2023/06/28 05:53:26;;;;;;;3.83;2.33;;;23.90;81.60;;;;;;6209642;28;88955;-71
2023/06/28 05:56:29;;;;;;;3.28;2.30;;;23.90;81.60;;;;;;6208787;28;88528;-72
2023/06/28 05:59:33;;;;;;;3.42;2.55;;;24.00;81.80;;;;;;6205448;28;89127;-71
2023/06/28 06:02:35;;;;;;;2.58;2.20;;;23.90;81.80;;;;;;6193778;28;88959;-71
2023/06/28 06:05:38;;;;;;;2.70;2.25;;;23.90;81.80;;;;;;6198791;28;88883;-72
2023/06/28 06:08:40;;;;;;;2.40;2.20;;;24.00;82.00;;;;;;6190430;28;91106;-71
2023/06/28 06:11:42;;;;;;;2.90;2.10;;;24.00;82.20;;;;;;6192361;28;89348;-71
2023/06/28 06:14:45;;;;;;;2.78;2.40;;;24.00;82.00;;;;;;6201569;28;89000;-71
2023/06/28 06:17:47;;;;;;;4.32;2.83;;;23.90;82.10;;;;;;6191505;28;89099;-70
2023/06/28 06:20:50;;;;;;;3.08;2.58;;;24.00;82.20;;;;;;6191522;28;89117;-71
2023/06/28 06:23:52;;;;;;;3.00;2.40;;;24.00;82.20;;;;;;6194236;28;89068;-71
2023/06/28 06:26:54;;;;;;;3.08;2.60;;;24.00;82.40;;;;;;6202050;28;88478;-72
2023/06/28 06:29:58;;;;;;;4.05;2.78;;;24.00;82.70;;;;;;6188653;28;89073;-71
2023/06/28 06:33:00;;;;;;;3.58;2.60;;;24.00;82.70;;;;;;6215024;28;89317;-71
2023/06/28 06:36:02;;;;;;;2.30;2.10;;;24.00;82.70;;;;;;6206647;28;90130;-71
2023/06/28 06:39:04;;;;;;;2.85;2.10;;;24.10;82.80;;;;;;6202848;28;89139;-71
2023/06/28 06:42:06;;;;;;;2.70;2.35;;;24.10;82.80;;;;;;6203859;28;89074;-71
2023/06/28 06:45:10;;;;;;;3.03;2.60;;;24.10;83.00;;;;;;6199547;28;89027;-71
2023/06/28 06:48:12;;;;;;;2.45;2.15;;;24.10;83.00;;;;;;6195741;28;89101;-71
2023/06/28 06:51:15;;;;;;;3.53;2.40;;;24.10;83.10;;;;;;6200870;28;89121;-71
2023/06/28 06:54:17;;;;;;;4.05;2.58;;;24.10;82.90;;;;;;6198144;28;88875;-71
2023/06/28 06:57:19;;;;;;;4.07;2.42;;;24.10;82.80;;;;;;6207354;28;88320;-72
2023/06/28 07:00:23;;;;;;;2.78;2.50;;;24.10;82.90;;;;;;6219877;28;87940;-71
2023/06/28 07:03:25;;;;;;;4.13;2.78;;;24.10;83.00;;;;;;6196589;28;89070;-71
2023/06/28 07:06:27;;;;;;;3.50;3.20;;;24.10;83.00;;;;;;6194053;28;89967;-71
2023/06/28 07:09:34;;;;;;;3.45;3.15;;;24.10;82.90;;;;;;6204584;28;89395;-71
2023/06/28 07:12:36;;;;;;;3.10;2.80;;;24.10;82.90;;;;;;6223489;28;89050;-71
2023/06/28 07:15:39;;;;;;;4.03;3.55;;;24.10;83.80;;;;;;6217371;28;88988;-71
2023/06/28 07:18:41;;;;;;;3.55;2.85;;;24.10;82.90;;;;;;6215181;28;87682;-71
2023/06/28 07:21:43;;;;;;;3.13;2.60;;;24.10;82.90;;;;;;6218524;28;90484;-71
2023/06/28 07:24:45;;;;;;;2.78;2.58;;;24.10;82.80;;;;;;6222616;28;89460;-71
2023/06/28 07:27:47;;;;;;;2.80;2.55;;;24.10;82.90;;;;;;6189504;28;87155;-71
2023/06/28 07:30:55;;;;;;;2.95;2.40;;;24.10;82.50;;;;;;6225529;28;89248;-71
2023/06/28 07:33:57;;;;;;;2.58;2.38;;;24.10;82.20;;;;;;6214995;28;89093;-71
2023/06/28 07:37:01;;;;;;;2.72;2.40;;;24.10;82.30;;;;;;6208488;28;90039;-71
2023/06/28 07:40:03;;;;;;;2.72;2.47;;;24.10;82.30;;;;;;6201605;28;89326;-70
2023/06/28 07:43:05;;;;;;;3.17;2.17;;;24.10;82.30;;;;;;6196890;28;88048;-71
2023/06/28 07:46:09;;;;;;;10.95;3.53;;;24.00;81.00;;;;;;6208613;28;89051;-70
2023/06/28 07:49:11;;;;;;;5.22;2.35;;;24.10;82.00;;;;;;6208921;28;89069;-70
2023/06/28 07:52:12;;;;;;;4.45;2.67;;;24.00;82.00;;;;;;6194628;28;89207;-70
2023/06/28 07:55:15;;;;;;;2.50;2.30;;;24.00;82.10;;;;;;6202499;28;89373;-71
2023/06/28 07:58:17;;;;;;;2.50;2.30;;;24.00;82.10;;;;;;6189873;28;88406;-71
2023/06/28 08:01:20;;;;;;;2.28;2.08;;;24.00;82.00;;;;;;6198304;28;89027;-70
2023/06/28 08:04:22;;;;;;;2.60;2.20;;;24.00;81.90;;;;;;6195933;28;89381;-71
2023/06/28 08:07:24;;;;;;;2.40;2.10;;;24.00;82.00;;;;;;6193992;28;90173;-70
2023/06/28 08:10:26;;;;;;;2.42;2.00;;;24.00;82.00;;;;;;6185288;28;89385;-70
2023/06/28 08:13:28;;;;;;;3.38;2.40;;;24.00;82.10;;;;;;6186649;28;89290;-70
2023/06/28 08:16:32;;;;;;;2.30;1.88;;;24.00;82.10;;;;;;6198716;28;89088;-71
2023/06/28 08:19:34;;;;;;;2.67;2.17;;;24.00;82.10;;;;;;6191569;28;90514;-70
2023/06/28 08:22:36;;;;;;;2.90;2.22;;;24.00;82.10;;;;;;6219806;28;89155;-71
2023/06/28 08:25:38;;;;;;;2.10;1.80;;;24.10;82.80;;;;;;6218070;28;88499;-70
2023/06/28 08:28:40;;;;;;;2.38;2.15;;;24.10;81.90;;;;;;6229736;28;88718;-71
2023/06/28 08:31:43;;;;;;;2.53;1.95;;;24.10;81.90;;;;;;6196904;28;87987;-70
2023/06/28 08:34:46;;;;;;;2.53;2.05;;;24.10;81.90;;;;;;6182593;28;89097;-70
2023/06/28 08:37:49;;;;;;;2.22;1.73;;;24.10;81.80;;;;;;6212174;28;90293;-69
2023/06/28 08:40:51;;;;;;;2.75;2.00;;;24.10;81.80;;;;;;6201283;28;87984;-70
2023/06/28 08:43:55;;;;;;;2.70;2.00;;;24.00;80.80;;;;;;6199701;28;89227;-70
2023/06/28 08:46:59;;;;;;;2.85;2.10;;;24.00;80.70;;;;;;6207595;28;88234;-70
2023/06/28 08:50:02;;;;;;;2.60;1.92;;;24.00;81.00;;;;;;6193755;28;89177;-70
2023/06/28 08:53:09;;;;;;;2.15;1.95;;;24.00;81.30;;;;;;6198325;28;89165;-69
2023/06/28 08:56:12;;;;;;;6.88;2.63;;;24.00;81.50;;;;;;6206986;28;88908;-70
2023/06/28 08:59:14;;;;;;;3.35;2.17;;;24.00;81.50;;;;;;6212953;28;88353;-70
2023/06/28 09:02:18;;;;;;;5.22;1.88;;;24.00;80.70;;;;;;6205512;28;89035;-70
2023/06/28 09:05:21;;;;;;;2.95;1.90;;;24.00;81.10;;;;;;6209003;28;89118;-70
2023/06/28 09:08:24;;;;;;;2.55;2.20;;;24.00;81.40;;;;;;6200716;28;90143;-70
2023/06/28 09:11:27;;;;;;;3.85;2.40;;;23.90;81.50;;;;;;6187129;28;89135;-70
2023/06/28 09:14:37;;;;;;;2.42;1.80;;;23.90;81.40;;;;;;6184615;28;89545;-70
2023/06/28 09:17:46;;;;;;;2.38;2.08;;;23.90;81.30;;;;;;6174664;28;89203;-69
2023/06/28 09:20:50;;;;;;;3.60;2.45;;;24.00;81.30;;;;;;6203951;28;89172;-70
2023/06/28 09:23:52;;;;;;;2.05;1.85;;;24.00;80.10;;;;;;6181050;28;89323;-69
2023/06/28 09:26:54;;;;;;;2.67;2.03;;;24.00;80.70;;;;;;6213955;28;88995;-70
2023/06/28 09:30:00;;;;;;;3.67;2.10;;;24.00;81.00;;;;;;6195439;28;88706;-70
2023/06/28 09:33:06;;;;;;;2.83;2.10;;;23.90;81.10;;;;;;6197419;28;89044;-70
2023/06/28 09:36:08;;;;;;;2.08;1.77;;;24.00;81.00;;;;;;6212653;28;89049;-70
2023/06/28 09:39:11;;;;;;;2.15;1.88;;;24.00;80.70;;;;;;6191592;28;90162;-70
2023/06/28 09:42:13;;;;;;;2.85;1.98;;;23.90;80.10;;;;;;6210011;28;89153;-70
2023/06/28 09:45:25;;;;;;;2.38;1.92;;;24.00;80.50;;;;;;6206256;28;89227;-70
2023/06/28 09:48:36;;;;;;;3.47;2.13;;;24.00;80.50;;;;;;6195402;28;88137;-70
2023/06/28 09:51:38;;;;;;;2.30;2.10;;;23.90;77.40;;;;;;6197919;28;89351;-70
2023/06/28 09:54:44;;;;;;;2.40;1.80;;;23.90;79.30;;;;;;6192976;28;89052;-70
2023/06/28 09:57:47;;;;;;;6.97;3.10;;;23.90;79.70;;;;;;6189998;28;89200;-70
2023/06/28 10:00:50;;;;;;;2.85;1.98;;;23.90;79.80;;;;;;6200096;28;88818;-72
2023/06/28 10:03:53;;;;;;;3.08;1.98;;;23.90;79.60;;;;;;6208554;28;89534;-68
2023/06/28 10:07:00;;;;;;;2.65;1.80;;;23.90;79.80;;;;;;6224464;28;89303;-69
2023/06/28 10:10:03;;;;;;;2.58;1.70;;;23.90;79.80;;;;;;6202322;28;90314;-70
2023/06/28 10:13:08;;;;;;;2.45;1.65;;;23.90;79.90;;;;;;6204775;28;88261;-70
2023/06/28 10:16:14;;;;;;;2.47;2.15;;;23.90;79.90;;;;;;6210552;28;89708;-67
2023/06/28 10:19:18;;;;;;;2.53;1.80;;;23.90;79.40;;;;;;6204261;28;89086;-69
2023/06/28 10:22:20;;;;;;;2.40;1.90;;;23.90;78.80;;;;;;6211990;28;88242;-70
2023/06/28 10:25:23;;;;;;;2.90;1.77;;;23.90;79.40;;;;;;6208700;28;89274;-70
2023/06/28 10:28:29;;;;;;;3.35;2.10;;;23.90;79.70;;;;;;6220188;28;89214;-71
2023/06/28 10:31:31;;;;;;;3.30;2.20;;;23.90;78.90;;;;;;6209208;28;88338;-71
2023/06/28 10:34:35;;;;;;;3.03;2.00;;;23.90;78.50;;;;;;6195543;28;89101;-71
2023/06/28 10:37:38;;;;;;;4.40;2.70;;;23.80;79.10;;;;;;6199057;28;88143;-70
2023/06/28 10:40:41;;;;;;;3.65;2.20;;;23.80;79.30;;;;;;6202850;28;89019;-71
2023/06/28 10:43:43;;;;;;;2.08;1.80;;;23.90;79.10;;;;;;6211003;28;88934;-70
2023/06/28 10:46:45;;;;;;;2.85;1.90;;;23.90;78.90;;;;;;6203372;28;89082;-70
2023/06/28 10:50:07;;;;;;;3.10;2.13;;;23.90;77.60;;;;;;6193904;28;89032;-71
2023/06/28 10:53:20;;;;;;;2.40;1.90;;;23.90;78.40;;;;;;6188154;28;89096;-71
2023/06/28 10:56:22;;;;;;;3.30;1.98;;;23.90;78.60;;;;;;6184506;28;89023;-71
2023/06/28 10:59:27;;;;;;;3.83;1.95;;;23.90;78.60;;;;;;6197136;28;89046;-70
2023/06/28 11:02:53;;;;;;;2.53;2.00;;;23.90;78.50;;;;;;6198768;28;88374;-69
2023/06/28 11:05:56;;;;;;;4.20;2.58;;;23.90;78.30;;;;;;6203476;28;88107;-71
2023/06/28 11:09:13;;;;;;;3.10;2.38;;;23.90;77.90;;;;;;6218509;28;89019;-71
2023/06/28 11:12:19;;;;;;;4.22;2.45;;;23.90;78.00;;;;;;6196492;28;90097;-71
2023/06/28 11:15:29;;;;;;;3.58;2.30;;;23.90;78.00;;;;;;6193393;28;89467;-70
2023/06/28 11:18:31;;;;;;;2.22;2.03;;;23.90;76.20;;;;;;6191676;28;89080;-71
2023/06/28 11:21:34;;;;;;;2.30;2.03;;;23.80;76.90;;;;;;6200300;28;89143;-72
2023/06/28 11:24:44;;;;;;;2.05;1.80;;;23.80;77.20;;;;;;6189402;28;89028;-71
2023/06/28 11:27:47;;;;;;;1.90;1.70;;;23.90;77.40;;;;;;6199425;28;89023;-71
2023/06/28 11:30:51;;;;;;;2.67;2.00;;;23.90;77.50;;;;;;6203935;28;89508;-70
2023/06/28 11:33:55;;;;;;;3.22;2.17;;;23.80;77.20;;;;;;6191589;28;88424;-71
2023/06/28 11:36:59;;;;;;;3.35;2.40;;;23.90;77.40;;;;;;6197274;28;89144;-70
2023/06/28 11:40:01;;;;;;;2.08;1.88;;;23.90;77.20;;;;;;6183521;28;89065;-70
2023/06/28 11:43:03;;;;;;;3.30;2.20;;;23.90;77.30;;;;;;6187509;28;90184;-70
2023/06/28 11:46:05;;;;;;;2.13;1.92;;;23.90;77.40;;;;;;6197510;28;89038;-70
2023/06/28 11:49:08;;;;;;;3.15;2.28;;;23.90;77.50;;;;;;6198366;28;89024;-71
2023/06/28 11:52:11;;;;;;;2.30;2.10;;;23.90;77.40;;;;;;6184145;28;88979;-71
2023/06/28 11:55:15;;;;;;;2.75;2.20;;;23.90;77.50;;;;;;6198000;28;89439;-70
2023/06/28 11:58:27;;;;;;;2.35;1.88;;;23.90;77.20;;;;;;6193242;28;89086;-71
2023/06/28 12:01:29;;;;;;;2.72;2.05;;;23.90;77.20;;;;;;6195931;28;89068;-70
2023/06/28 12:04:32;;;;;;;2.47;1.98;;;23.90;77.30;;;;;;6188568;28;88553;-71
2023/06/28 12:07:36;;;;;;;4.00;2.65;;;23.90;77.30;;;;;;6195553;28;89069;-71
2023/06/28 12:10:38;;;;;;;3.63;2.42;;;23.90;77.10;;;;;;6195254;28;90925;-71
2023/06/28 12:13:40;;;;;;;2.40;2.10;;;24.00;76.00;;;;;;6199941;28;90069;-70
2023/06/28 12:16:45;;;;;;;3.20;2.10;;;23.90;76.10;;;;;;6192361;28;89101;-70
2023/06/28 12:19:47;;;;;;;2.15;1.90;;;23.90;76.30;;;;;;6183679;28;89353;-71
2023/06/28 12:22:50;;;;;;;3.17;2.50;;;23.90;75.90;;;;;;6190300;28;88738;-70
2023/06/28 12:25:52;;;;;;;4.40;2.45;;;23.90;75.50;;;;;;6194681;28;89123;-71
2023/06/28 12:28:55;;;;;;;2.40;2.10;;;23.80;76.10;;;;;;6187440;28;89094;-68
2023/06/28 12:31:58;;;;;;;2.38;1.95;;;23.90;76.60;;;;;;6206380;28;89244;-70
2023/06/28 12:35:00;;;;;;;2.38;1.90;;;23.80;76.20;;;;;;6203672;28;88360;-71
2023/06/28 12:38:04;;;;;;;3.20;2.22;;;23.90;76.60;;;;;;6186803;28;89251;-70
2023/06/28 12:41:07;;;;;;;2.53;2.30;;;23.90;75.90;;;;;;6195298;28;89179;-70
2023/06/28 12:44:18;;;;;;;2.53;2.20;;;23.80;76.40;;;;;;6195449;28;90067;-70
2023/06/28 12:47:21;;;;;;;2.40;2.10;;;23.90;76.70;;;;;;6197343;28;89179;-70
2023/06/28 12:50:23;;;;;;;2.78;2.15;;;23.90;76.90;;;;;;6192783;28;89064;-71
2023/06/28 12:53:27;;;;;;;2.30;2.10;;;23.90;77.00;;;;;;6196533;28;87984;-71
2023/06/28 12:56:28;;;;;;;3.00;2.30;;;23.90;76.90;;;;;;6194910;28;89111;-71
2023/06/28 12:59:31;;;;;;;2.35;2.15;;;23.90;76.90;;;;;;6203140;28;89186;-70
2023/06/28 13:02:33;;;;;;;2.65;2.03;;;23.90;76.90;;;;;;6197626;28;89136;-70
2023/06/28 13:05:35;;;;;;;2.20;2.00;;;23.90;76.80;;;;;;6193862;28;88421;-70
2023/06/28 13:08:40;;;;;;;2.42;2.22;;;23.90;76.30;;;;;;6196176;28;89034;-71
2023/06/28 13:11:42;;;;;;;3.17;2.17;;;23.90;76.40;;;;;;6204859;28;89404;-70
2023/06/28 13:14:43;;;;;;;2.45;2.10;;;23.90;75.90;;;;;;6206281;28;90009;-69
2023/06/28 13:17:45;;;;;;;4.15;2.53;;;23.90;76.10;;;;;;6210392;28;89070;-69
2023/06/28 13:20:47;;;;;;;2.47;2.22;;;23.90;76.70;;;;;;6215628;28;88010;-70
2023/06/28 13:23:51;;;;;;;2.78;2.20;;;23.90;77.20;;;;;;6209945;28;89298;-70
2023/06/28 13:26:54;;;;;;;2.50;2.30;;;23.90;77.20;;;;;;6215842;28;89037;-70
2023/06/28 13:29:56;;;;;;;1.95;1.80;;;23.90;76.60;;;;;;6193133;28;89349;-70
2023/06/28 13:32:58;;;;;;;2.88;2.30;;;23.90;76.50;;;;;;6185979;28;89071;-70
2023/06/28 13:36:00;;;;;;;2.67;2.28;;;23.90;76.50;;;;;;6203056;28;88655;-71
2023/06/28 13:39:03;;;;;;;2.50;2.17;;;23.90;75.70;;;;;;6191002;28;89116;-70
2023/06/28 13:42:06;;;;;;;3.90;2.20;;;23.90;75.50;;;;;;6192144;28;89417;-70
2023/06/28 13:45:09;;;;;;;2.63;1.98;;;23.90;75.20;;;;;;6203959;28;90073;-69
2023/06/28 13:48:11;;;;;;;2.15;1.95;;;23.90;75.40;;;;;;6200166;28;88001;-71
2023/06/28 13:51:13;;;;;;;2.33;1.95;;;23.90;74.10;;;;;;6195433;28;89060;-70
2023/06/28 13:54:16;;;;;;;2.47;2.10;;;23.90;74.50;;;;;;6205005;28;89509;-70
2023/06/28 13:57:18;;;;;;;2.78;2.05;;;23.90;74.70;;;;;;6198734;28;89074;-71
2023/06/28 14:00:21;;;;;;;2.13;1.90;;;23.90;74.80;;;;;;6195247;28;89213;-71
2023/06/28 14:03:23;;;;;;;2.40;1.90;;;23.90;74.80;;;;;;6196266;28;89087;-71
2023/06/28 14:06:25;;;;;;;2.10;1.77;;;23.90;74.70;;;;;;6197840;28;88401;-71
2023/06/28 14:09:29;;;;;;;3.05;2.22;;;23.90;74.50;;;;;;6190699;28;88949;-71
2023/06/28 14:12:31;;;;;;;4.65;2.20;;;23.90;73.60;;;;;;6181263;28;89132;-71
2023/06/28 14:15:33;;;;;;;3.40;2.30;;;23.90;73.70;;;;;;6193087;28;90331;-71
2023/06/28 14:18:35;;;;;;;2.20;1.90;;;23.90;73.80;;;;;;6201882;28;89038;-70
2023/06/28 14:21:37;;;;;;;2.90;2.17;;;23.90;73.80;;;;;;6196507;28;89174;-69
2023/06/28 14:24:40;;;;;;;2.85;2.08;;;23.90;73.90;;;;;;6190858;28;89038;-71
2023/06/28 14:27:42;;;;;;;3.58;2.22;;;23.90;73.70;;;;;;6193182;28;89372;-71
2023/06/28 14:30:45;;;;;;;2.53;2.13;;;23.90;73.20;;;;;;6197834;28;88923;-70
2023/06/28 14:33:47;;;;;;;2.35;2.03;;;23.90;73.70;;;;;;6191435;28;89494;-73
2023/06/28 14:36:49;;;;;;;2.35;1.90;;;23.90;73.40;;;;;;6215437;28;88213;-73
2023/06/28 14:39:53;;;;;;;2.65;2.20;;;23.80;74.40;;;;;;6194831;28;89082;-72
2023/06/28 14:42:55;;;;;;;2.10;1.90;;;23.90;74.40;;;;;;6203660;28;89214;-72
2023/06/28 14:45:57;;;;;;;3.40;2.00;;;23.90;74.40;;;;;;6199022;28;90011;-73
2023/06/28 14:48:59;;;;;;;3.97;2.40;;;23.90;72.80;;;;;;6191106;28;89450;-72
2023/06/28 14:52:01;;;;;;;2.58;1.92;;;23.80;71.50;;;;;;6202093;28;89113;-72
2023/06/28 14:55:05;;;;;;;2.67;1.90;;;23.80;72.00;;;;;;6192611;28;89079;-72
2023/06/28 14:58:07;;;;;;;1.73;1.63;;;23.90;72.80;;;;;;6197609;28;89284;-73
2023/06/28 15:01:09;;;;;;;2.35;1.90;;;23.80;73.20;;;;;;6216876;28;88990;-72
2023/06/28 15:04:11;;;;;;;2.85;2.13;;;23.80;73.30;;;;;;6200530;28;89122;-72
2023/06/28 15:07:13;;;;;;;2.30;1.80;;;23.90;72.30;;;;;;6205941;28;88280;-72
2023/06/28 15:10:16;;;;;;;2.20;2.00;;;23.90;73.30;;;;;;6204470;28;88996;-72
2023/06/28 15:13:20;;;;;;;2.55;2.00;;;23.90;73.80;;;;;;6189008;28;89331;-72
2023/06/28 15:16:22;;;;;;;2.50;1.95;;;23.90;73.50;;;;;;6187203;28;90036;-71
2023/06/28 15:19:23;;;;;;;2.97;2.30;;;23.90;73.00;;;;;;6196273;28;89072;-72
2023/06/28 15:22:26;;;;;;;3.50;2.10;;;23.90;73.40;;;;;;6183307;28;88767;-72
2023/06/28 15:25:29;;;;;;;4.18;2.20;;;23.90;73.60;;;;;;6191339;28;88937;-71
2023/06/28 15:28:31;;;;;;;2.58;1.95;;;23.90;73.80;;;;;;6187234;28;89164;-71
2023/06/28 15:31:33;;;;;;;2.55;1.95;;;23.80;73.80;;;;;;6183226;28;90170;-71
2023/06/28 15:34:35;;;;;;;2.65;2.00;;;23.90;73.50;;;;;;6193849;28;89180;-72
2023/06/28 15:37:37;;;;;;;2.10;1.70;;;23.90;73.50;;;;;;6194794;28;88307;-72
2023/06/28 15:40:41;;;;;;;2.58;1.95;;;23.90;73.40;;;;;;6199326;28;89038;-73
2023/06/28 15:43:43;;;;;;;3.35;1.90;;;23.90;73.20;;;;;;6196379;28;89128;-72
2023/06/28 15:46:46;;;;;;;4.65;2.03;;;23.90;73.00;;;;;;6194784;28;90002;-72
2023/06/28 15:49:48;;;;;;;2.30;1.88;;;23.90;72.80;;;;;;6188592;28;89282;-71
2023/06/28 15:52:50;;;;;;;2.28;1.85;;;23.90;72.40;;;;;;6202635;28;87948;-72
2023/06/28 15:55:53;;;;;;;2.20;2.00;;;23.90;72.80;;;;;;6192338;28;88201;-72